Time;durP1;ratioP1;P1;durP2;ratioP2;P2;SDS_P1;SDS_P2;PMS_P1;PMS_P2;Temp;Humidity;BMP_temperature;BMP_pressure;BME280_temperature;BME280_humidity;BME280_pressure;Samples;Min_cycle;Max_cycle;Signal;HPM_P1;HPM_P2
2021/07/11 00:00:28;;;;;;;9.20;6.13;;;17.70;99.90;;;;;;5030425;28;20120;-67
2021/07/11 00:02:55;;;;;;;8.57;6.38;;;17.70;99.90;;;;;;5038988;28;20373;-67
2021/07/11 00:05:25;;;;;;;7.47;5.78;;;17.70;99.90;;;;;;5036157;28;20069;-67
2021/07/11 00:07:54;;;;;;;8.10;6.13;;;17.70;99.90;;;;;;5036120;28;20411;-67
2021/07/11 00:10:22;;;;;;;8.20;5.93;;;17.70;99.90;;;;;;5043544;28;20068;-67
2021/07/11 00:12:51;;;;;;;10.13;7.80;;;17.60;99.90;;;;;;5044917;28;20049;-66
2021/07/11 00:15:22;;;;;;;17.08;13.00;;;17.60;99.90;;;;;;5042418;28;20053;-66
2021/07/11 00:17:51;;;;;;;15.40;11.57;;;17.70;99.90;;;;;;5051002;28;20384;-66
2021/07/11 00:20:20;;;;;;;12.35;10.65;;;17.60;99.90;;;;;;5040417;28;20087;-66
2021/07/11 00:22:48;;;;;;;14.55;10.98;;;17.60;99.90;;;;;;5024068;28;20041;-66
2021/07/11 00:25:15;;;;;;;17.55;12.55;;;17.60;99.90;;;;;;5039771;28;20037;-66
2021/07/11 00:27:44;;;;;;;15.40;12.60;;;17.60;99.90;;;;;;5040202;28;20102;-66
2021/07/11 00:30:12;;;;;;;14.65;11.63;;;17.60;99.90;;;;;;5041754;28;20038;-66
2021/07/11 00:32:40;;;;;;;12.02;10.32;;;17.60;99.90;;;;;;5044377;28;20120;-66
2021/07/11 00:35:08;;;;;;;12.27;9.82;;;17.60;99.90;;;;;;5040414;28;20500;-67
2021/07/11 00:37:36;;;;;;;13.65;9.85;;;17.70;99.90;;;;;;5042853;28;20071;-66
2021/07/11 00:40:06;;;;;;;10.52;9.43;;;17.70;99.90;;;;;;5044194;28;20052;-66
2021/07/11 00:42:34;;;;;;;16.45;9.73;;;17.70;99.90;;;;;;5043572;28;20049;-66
2021/07/11 00:45:05;;;;;;;12.18;8.95;;;17.70;99.90;;;;;;5044014;28;20515;-66
2021/07/11 00:47:39;;;;;;;10.48;9.45;;;17.60;99.90;;;;;;5040380;28;20587;-66
2021/07/11 00:50:08;;;;;;;9.48;8.35;;;17.70;99.90;;;;;;5030754;28;20381;-66
2021/07/11 00:52:39;;;;;;;10.80;8.77;;;17.70;99.90;;;;;;5039936;28;20059;-66
2021/07/11 00:55:10;;;;;;;11.48;8.30;;;17.70;99.90;;;;;;5034297;28;20045;-66
2021/07/11 00:57:38;;;;;;;10.30;8.60;;;17.70;99.90;;;;;;5027423;28;20050;-65
2021/07/11 01:00:09;;;;;;;13.77;8.02;;;17.60;99.90;;;;;;5050495;28;20451;-66
2021/07/11 01:03:16;;;;;;;16.45;8.32;;;17.70;99.90;;;;;;5042561;28;20138;-66
2021/07/11 01:05:48;;;;;;;17.48;8.55;;;17.70;99.90;;;;;;5032574;28;20557;-65
2021/07/11 01:08:37;;;;;;;9.20;7.60;;;17.60;99.90;;;;;;5012467;28;20392;-66
2021/07/11 01:11:10;;;;;;;11.02;7.63;;;17.60;99.90;;;;;;5039533;28;20128;-66
2021/07/11 01:13:40;;;;;;;8.93;7.60;;;17.50;99.90;;;;;;5047420;28;20044;-66
2021/07/11 01:16:22;;;;;;;10.05;7.25;;;17.50;99.90;;;;;;5026895;28;20048;-66
2021/07/11 01:19:11;;;;;;;14.55;8.05;;;17.50;99.90;;;;;;5022431;28;20095;-66
2021/07/11 01:21:46;;;;;;;11.30;7.87;;;17.50;99.90;;;;;;5043085;28;20097;-65
2021/07/11 01:24:31;;;;;;;9.02;7.35;;;17.50;99.90;;;;;;5031963;28;20422;-66
2021/07/11 01:27:02;;;;;;;9.68;7.75;;;17.50;99.90;;;;;;5037088;28;20037;-66
2021/07/11 01:29:30;;;;;;;8.32;6.97;;;17.50;99.90;;;;;;5050204;28;20522;-66
2021/07/11 01:31:59;;;;;;;8.63;6.60;;;17.60;99.90;;;;;;5031947;28;20376;-66
2021/07/11 01:34:27;;;;;;;9.38;6.10;;;17.50;99.90;;;;;;5035985;28;20045;-65
2021/07/11 01:36:56;;;;;;;7.10;5.60;;;17.50;99.90;;;;;;5033683;28;20077;-66
2021/07/11 01:39:26;;;;;;;6.43;5.65;;;17.60;99.90;;;;;;5037422;28;20075;-67
2021/07/11 01:41:55;;;;;;;7.72;5.63;;;17.50;99.90;;;;;;5031572;28;20056;-66
2021/07/11 01:44:26;;;;;;;8.35;5.53;;;17.50;99.90;;;;;;5035480;28;20069;-67
2021/07/11 01:46:54;;;;;;;7.78;4.68;;;17.50;99.90;;;;;;5045484;28;20030;-67
2021/07/11 01:49:22;;;;;;;11.45;5.13;;;17.50;99.90;;;;;;5036171;28;20045;-67
2021/07/11 01:51:53;;;;;;;9.60;5.28;;;17.50;99.90;;;;;;5030188;28;20465;-66
2021/07/11 01:54:26;;;;;;;6.97;4.85;;;17.50;99.90;;;;;;5035747;28;20104;-67
2021/07/11 01:56:54;;;;;;;5.97;4.90;;;17.50;99.90;;;;;;5034183;28;20048;-66
2021/07/11 01:59:23;;;;;;;6.70;5.47;;;17.50;99.90;;;;;;5037735;28;20049;-66
2021/07/11 02:01:59;;;;;;;7.57;5.45;;;17.50;99.90;;;;;;5042829;28;20095;-67
2021/07/11 02:04:29;;;;;;;6.15;4.65;;;17.50;99.90;;;;;;5039800;28;20480;-66
2021/07/11 02:06:58;;;;;;;6.05;4.55;;;17.50;99.90;;;;;;5033150;28;20037;-67
2021/07/11 02:09:26;;;;;;;5.90;4.57;;;17.60;99.90;;;;;;5037544;28;20128;-67
2021/07/11 02:12:04;;;;;;;5.97;4.85;;;17.60;99.90;;;;;;5042416;28;20120;-67
2021/07/11 02:14:53;;;;;;;8.25;4.10;;;17.60;99.90;;;;;;5028747;28;20061;-66
2021/07/11 02:17:26;;;;;;;5.13;3.72;;;17.60;99.90;;;;;;5033899;28;20119;-66
2021/07/11 02:20:15;;;;;;;6.10;3.45;;;17.70;99.90;;;;;;5034562;28;20164;-66
2021/07/11 02:22:47;;;;;;;5.53;3.75;;;17.80;99.90;;;;;;5044872;28;20046;-66
2021/07/11 02:25:20;;;;;;;4.72;3.20;;;17.80;99.90;;;;;;5034684;28;20053;-66
2021/07/11 02:27:57;;;;;;;4.32;2.90;;;17.80;99.90;;;;;;5036631;28;20367;-67
2021/07/11 02:30:36;;;;;;;4.38;3.00;;;17.90;99.90;;;;;;5046853;28;20048;-66
2021/07/11 02:33:10;;;;;;;4.47;2.95;;;17.90;99.90;;;;;;5046512;28;20095;-67
2021/07/11 02:35:44;;;;;;;5.70;3.05;;;17.80;99.90;;;;;;5038403;28;20041;-67
2021/07/11 02:38:15;;;;;;;6.35;2.53;;;17.90;99.90;;;;;;5043009;28;20455;-66
2021/07/11 02:40:45;;;;;;;4.55;2.42;;;17.80;99.90;;;;;;5034780;28;20120;-67
2021/07/11 02:43:14;;;;;;;3.55;2.40;;;17.80;99.90;;;;;;5050992;28;20059;-67
2021/07/11 02:45:43;;;;;;;4.43;2.70;;;17.70;99.90;;;;;;5039183;28;20046;-66
2021/07/11 02:48:13;;;;;;;4.53;2.33;;;17.70;99.90;;;;;;5031954;28;20040;-67
2021/07/11 02:50:46;;;;;;;4.55;2.40;;;17.70;99.90;;;;;;5051955;28;20393;-66
2021/07/11 02:53:20;;;;;;;3.80;2.35;;;17.60;99.90;;;;;;5036723;28;20444;-66
2021/07/11 02:55:55;;;;;;;3.78;2.30;;;17.70;99.90;;;;;;5043881;28;20049;-67
2021/07/11 02:58:30;;;;;;;4.07;2.42;;;17.70;99.90;;;;;;5049280;28;20435;-66
2021/07/11 03:01:01;;;;;;;3.85;2.47;;;17.70;99.90;;;;;;5053839;28;20051;-66
2021/07/11 03:03:29;;;;;;;4.50;2.35;;;17.60;99.90;;;;;;5042345;28;20049;-66
2021/07/11 03:06:03;;;;;;;6.38;2.45;;;17.60;99.90;;;;;;5032132;28;20141;-66
2021/07/11 03:08:32;;;;;;;4.45;2.50;;;17.70;99.90;;;;;;5048892;28;20079;-66
2021/07/11 03:11:08;;;;;;;4.53;2.67;;;17.70;99.90;;;;;;5048423;28;20408;-66
2021/07/11 03:13:37;;;;;;;5.22;2.65;;;17.70;99.90;;;;;;5040271;28;20116;-66
2021/07/11 03:16:08;;;;;;;3.80;2.40;;;17.70;99.90;;;;;;5042052;28;20866;-66
2021/07/11 03:18:40;;;;;;;4.80;2.85;;;17.70;99.90;;;;;;5030144;28;20384;-65
2021/07/11 03:21:08;;;;;;;4.15;2.50;;;17.70;99.90;;;;;;5042804;28;20048;-66
2021/07/11 03:23:42;;;;;;;4.35;2.80;;;17.60;99.90;;;;;;5045972;28;20041;-67
2021/07/11 03:26:09;;;;;;;6.03;3.25;;;17.50;99.90;;;;;;5044357;28;20067;-67
2021/07/11 03:28:37;;;;;;;7.57;3.53;;;17.50;99.90;;;;;;5041022;28;20037;-67
2021/07/11 03:31:07;;;;;;;5.90;3.17;;;17.40;99.90;;;;;;5045490;28;20033;-66
2021/07/11 03:33:39;;;;;;;4.28;3.03;;;17.30;99.90;;;;;;5038794;28;20448;-66
2021/07/11 03:36:11;;;;;;;6.28;3.47;;;17.30;99.90;;;;;;5043596;28;20503;-67
2021/07/11 03:38:43;;;;;;;4.88;3.33;;;17.20;99.90;;;;;;5040114;28;20037;-67
2021/07/11 03:41:17;;;;;;;4.80;3.65;;;17.20;99.90;;;;;;5043743;28;20127;-67
2021/07/11 03:43:51;;;;;;;5.55;3.40;;;17.20;99.90;;;;;;5040017;28;20484;-67
2021/07/11 03:46:22;;;;;;;5.30;3.50;;;17.20;99.90;;;;;;5043802;28;20040;-67
2021/07/11 03:48:58;;;;;;;6.25;3.45;;;17.20;99.90;;;;;;5036085;28;20041;-67
2021/07/11 03:51:30;;;;;;;5.93;3.53;;;17.20;99.90;;;;;;5032032;28;20038;-67
2021/07/11 03:53:59;;;;;;;5.93;3.60;;;17.10;99.90;;;;;;5034692;28;20061;-67
2021/07/11 03:56:28;;;;;;;4.97;3.53;;;17.10;99.90;;;;;;5031855;28;20042;-67
2021/07/11 03:58:56;;;;;;;6.03;4.25;;;17.10;99.90;;;;;;5038994;28;20523;-67
2021/07/11 04:01:32;;;;;;;5.28;3.25;;;17.10;99.90;;;;;;5038398;28;20046;-67
2021/07/11 04:04:04;;;;;;;6.60;3.55;;;17.20;99.90;;;;;;5031268;28;20040;-67
2021/07/11 04:06:32;;;;;;;5.32;3.95;;;17.10;99.90;;;;;;5034844;28;20045;-66
2021/07/11 04:09:02;;;;;;;5.70;3.65;;;17.10;99.90;;;;;;5047083;28;20033;-66
2021/07/11 04:11:34;;;;;;;5.22;3.63;;;17.10;99.90;;;;;;5051313;28;20064;-67
2021/07/11 04:14:01;;;;;;;5.55;3.55;;;17.10;99.90;;;;;;5040503;28;20406;-67
2021/07/11 04:16:32;;;;;;;6.07;3.60;;;17.10;99.90;;;;;;5041904;28;20047;-67
2021/07/11 04:19:01;;;;;;;5.22;3.70;;;17.10;99.90;;;;;;5050577;28;20037;-67
2021/07/11 04:21:31;;;;;;;6.57;3.90;;;17.10;99.90;;;;;;5045174;28;20225;-67
2021/07/11 04:23:58;;;;;;;4.95;3.50;;;17.00;99.90;;;;;;5048312;28;20119;-67
2021/07/11 04:26:32;;;;;;;5.93;3.50;;;17.10;99.90;;;;;;5048364;28;20155;-67
2021/07/11 04:29:01;;;;;;;5.25;3.42;;;17.10;99.90;;;;;;5047277;28;20049;-66
2021/07/11 04:31:28;;;;;;;5.97;3.45;;;17.10;99.90;;;;;;5047653;28;20511;-66
2021/07/11 04:33:56;;;;;;;6.47;3.17;;;17.10;99.90;;;;;;5050928;28;20139;-67
2021/07/11 04:36:23;;;;;;;7.47;3.50;;;17.10;99.90;;;;;;5049432;28;20041;-67
2021/07/11 04:38:51;;;;;;;4.95;3.28;;;17.10;99.90;;;;;;5051133;28;20511;-67
2021/07/11 04:41:19;;;;;;;6.43;3.47;;;17.10;99.90;;;;;;5044050;28;20136;-66
2021/07/11 04:43:46;;;;;;;7.70;3.58;;;17.00;99.90;;;;;;5048989;28;20033;-67
2021/07/11 04:46:14;;;;;;;5.13;3.30;;;17.00;99.90;;;;;;5050148;28;20036;-66
2021/07/11 04:48:41;;;;;;;4.75;3.08;;;17.10;99.90;;;;;;5050825;28;20041;-66
2021/07/11 04:51:08;;;;;;;5.93;3.17;;;17.10;99.90;;;;;;5036445;28;20069;-65
2021/07/11 04:53:35;;;;;;;5.15;3.15;;;17.10;99.90;;;;;;5030603;28;20052;-66
2021/07/11 04:56:03;;;;;;;5.13;2.90;;;17.20;99.90;;;;;;5039585;28;20040;-66
2021/07/11 04:58:30;;;;;;;5.30;3.08;;;17.20;99.90;;;;;;5049622;28;20130;-67
2021/07/11 05:00:57;;;;;;;4.57;3.35;;;17.20;99.90;;;;;;5043549;28;20037;-66
2021/07/11 05:03:25;;;;;;;4.55;3.20;;;17.10;99.90;;;;;;5046010;28;20537;-66
2021/07/11 05:05:52;;;;;;;8.10;3.00;;;17.20;99.90;;;;;;5047635;28;20040;-66
2021/07/11 05:08:19;;;;;;;6.10;3.15;;;17.20;99.90;;;;;;5049236;28;20140;-66
2021/07/11 05:10:46;;;;;;;5.07;3.33;;;17.20;99.90;;;;;;5044250;28;20040;-66
2021/07/11 05:13:14;;;;;;;6.05;3.00;;;17.30;99.90;;;;;;5037075;28;20045;-66
2021/07/11 05:15:41;;;;;;;4.82;3.05;;;17.30;99.90;;;;;;5034526;28;20052;-66
2021/07/11 05:18:09;;;;;;;4.57;2.78;;;17.40;99.90;;;;;;5048619;28;20064;-66
2021/07/11 05:20:36;;;;;;;4.45;3.30;;;17.40;99.90;;;;;;5049658;28;20043;-66
2021/07/11 05:23:03;;;;;;;8.15;3.20;;;17.40;99.90;;;;;;5040883;28;20059;-67
2021/07/11 05:25:32;;;;;;;5.50;2.80;;;17.50;99.90;;;;;;5037096;28;20443;-66
2021/07/11 05:28:01;;;;;;;4.38;2.70;;;17.60;99.90;;;;;;5047395;28;20128;-66
2021/07/11 05:30:29;;;;;;;3.80;2.50;;;17.60;99.90;;;;;;5049027;28;20037;-66
2021/07/11 05:32:58;;;;;;;5.93;2.70;;;17.60;99.90;;;;;;5048247;28;20522;-66
2021/07/11 05:35:25;;;;;;;5.82;2.45;;;17.70;99.90;;;;;;5042240;28;20041;-66
2021/07/11 05:37:52;;;;;;;3.75;2.45;;;17.70;99.90;;;;;;5049963;28;20079;-66
2021/07/11 05:40:21;;;;;;;4.10;2.03;;;17.70;99.90;;;;;;5049799;28;20052;-66
2021/07/11 05:42:49;;;;;;;4.47;2.15;;;17.70;99.90;;;;;;5048940;28;20041;-66
2021/07/11 05:45:16;;;;;;;7.13;2.03;;;17.80;99.90;;;;;;5049703;28;20495;-66
2021/07/11 05:47:46;;;;;;;3.70;2.15;;;17.90;99.90;;;;;;5050157;28;20048;-66
2021/07/11 05:50:14;;;;;;;4.50;2.08;;;17.80;99.90;;;;;;5044156;28;20052;-66
2021/07/11 05:52:42;;;;;;;7.03;1.90;;;17.80;99.90;;;;;;5030780;28;20571;-66
2021/07/11 05:55:10;;;;;;;3.17;1.80;;;17.70;99.90;;;;;;5033715;28;20480;-67
2021/07/11 05:57:38;;;;;;;4.15;1.70;;;17.70;99.90;;;;;;5052634;28;20119;-66
2021/07/11 06:00:08;;;;;;;4.10;1.60;;;17.60;99.90;;;;;;5054771;28;20110;-66
2021/07/11 06:02:39;;;;;;;2.40;1.52;;;17.60;99.90;;;;;;5052520;28;20570;-66
2021/07/11 06:05:06;;;;;;;2.25;1.30;;;17.60;99.90;;;;;;5052985;28;20070;-66
2021/07/11 06:07:35;;;;;;;4.18;1.48;;;17.60;99.90;;;;;;5049512;28;20333;-66
2021/07/11 06:10:06;;;;;;;3.42;1.30;;;17.60;99.90;;;;;;5047097;28;20045;-66
2021/07/11 06:12:34;;;;;;;2.17;1.40;;;17.60;99.90;;;;;;5052383;28;20043;-66
2021/07/11 06:15:04;;;;;;;3.13;1.63;;;17.60;99.90;;;;;;5052710;28;20439;-67
2021/07/11 06:17:33;;;;;;;4.25;1.33;;;17.80;99.90;;;;;;5040387;28;20100;-67
2021/07/11 06:20:04;;;;;;;2.35;1.10;;;17.90;99.90;;;;;;5018863;28;20065;-66
2021/07/11 06:22:32;;;;;;;2.45;1.50;;;18.00;99.90;;;;;;5043716;28;20084;-66
2021/07/11 06:25:06;;;;;;;2.55;1.45;;;18.10;99.90;;;;;;5023406;28;20045;-66
2021/07/11 06:27:39;;;;;;;2.40;1.20;;;18.30;99.90;;;;;;5051944;28;20112;-66
2021/07/11 06:30:09;;;;;;;3.25;1.40;;;18.40;99.90;;;;;;5052681;28;20565;-67
2021/07/11 06:32:38;;;;;;;2.40;1.52;;;18.40;99.90;;;;;;5053785;28;20045;-67
2021/07/11 06:35:07;;;;;;;2.33;1.40;;;18.40;99.90;;;;;;5044310;28;20481;-67
2021/07/11 06:37:35;;;;;;;2.53;1.40;;;18.30;99.90;;;;;;5047232;28;20045;-67
2021/07/11 06:40:04;;;;;;;1.60;1.05;;;18.50;99.90;;;;;;5052934;28;20045;-67
2021/07/11 06:42:32;;;;;;;2.15;1.33;;;18.60;99.90;;;;;;5053588;28;20128;-67
2021/07/11 06:44:59;;;;;;;2.97;1.50;;;18.70;99.90;;;;;;5044819;28;20044;-67
2021/07/11 06:47:26;;;;;;;2.83;1.40;;;18.80;99.90;;;;;;5050177;28;20124;-67
2021/07/11 06:49:54;;;;;;;2.35;1.33;;;18.70;99.90;;;;;;5050154;28;20045;-67
2021/07/11 06:52:21;;;;;;;2.35;1.40;;;18.70;99.90;;;;;;5053605;28;20052;-67
2021/07/11 06:54:51;;;;;;;3.42;1.90;;;18.80;99.90;;;;;;5048555;28;20087;-67
2021/07/11 06:57:19;;;;;;;2.13;1.33;;;18.60;99.90;;;;;;5041889;28;20048;-67
2021/07/11 06:59:46;;;;;;;4.70;1.70;;;18.50;99.90;;;;;;5054714;28;20044;-67
2021/07/11 07:02:14;;;;;;;2.67;1.67;;;18.40;99.90;;;;;;5036390;28;20045;-67
2021/07/11 07:04:41;;;;;;;2.83;1.60;;;18.20;99.90;;;;;;5045635;28;20044;-67
2021/07/11 07:07:09;;;;;;;3.15;1.73;;;18.10;99.90;;;;;;5049192;28;20037;-67
2021/07/11 07:09:36;;;;;;;2.97;1.73;;;18.00;99.90;;;;;;5051385;28;20055;-67
2021/07/11 07:12:04;;;;;;;3.90;1.67;;;18.00;99.90;;;;;;5039367;28;20124;-66
2021/07/11 07:14:32;;;;;;;2.95;1.58;;;18.00;99.90;;;;;;5046576;28;20079;-67
2021/07/11 07:17:00;;;;;;;3.08;1.63;;;17.90;99.90;;;;;;5051351;28;20407;-67
2021/07/11 07:19:27;;;;;;;2.78;1.50;;;17.80;99.90;;;;;;5043657;28;20056;-67
2021/07/11 07:21:55;;;;;;;2.78;1.65;;;17.90;99.90;;;;;;5052745;28;20109;-67
2021/07/11 07:24:22;;;;;;;2.90;1.77;;;17.90;99.90;;;;;;5042765;28;20137;-68
2021/07/11 07:26:49;;;;;;;3.65;2.00;;;18.00;99.90;;;;;;5027912;28;20185;-66
2021/07/11 07:29:17;;;;;;;3.80;1.80;;;18.00;99.90;;;;;;5051059;28;20087;-66
2021/07/11 07:31:47;;;;;;;3.63;2.03;;;18.10;99.90;;;;;;5047864;28;20052;-66
2021/07/11 07:34:15;;;;;;;3.88;1.70;;;18.30;99.90;;;;;;5049705;28;20041;-66
2021/07/11 07:36:42;;;;;;;3.42;1.88;;;18.50;99.90;;;;;;5028968;28;20045;-68
2021/07/11 07:39:10;;;;;;;3.15;1.80;;;18.60;99.90;;;;;;5045724;28;20057;-66
2021/07/11 07:41:37;;;;;;;3.17;1.70;;;18.60;99.90;;;;;;5034554;28;20121;-67
2021/07/11 07:44:05;;;;;;;3.58;1.95;;;18.50;99.90;;;;;;5045953;28;20322;-67
2021/07/11 07:46:33;;;;;;;4.13;1.83;;;18.30;99.90;;;;;;5051953;28;20106;-67
2021/07/11 07:49:00;;;;;;;3.28;1.85;;;18.20;99.90;;;;;;5052612;28;20044;-66
2021/07/11 07:51:28;;;;;;;3.08;1.80;;;18.20;99.90;;;;;;5038274;28;20042;-67
2021/07/11 07:53:55;;;;;;;4.10;1.77;;;18.30;99.90;;;;;;5045365;28;20559;-67
2021/07/11 07:56:22;;;;;;;3.42;2.10;;;18.30;99.90;;;;;;5034562;28;20132;-66
2021/07/11 07:58:50;;;;;;;3.67;1.83;;;18.30;99.90;;;;;;5031768;28;20073;-67
2021/07/11 08:01:17;;;;;;;4.03;1.90;;;18.40;99.90;;;;;;5035093;28;20076;-67
2021/07/11 08:03:46;;;;;;;3.60;2.10;;;18.30;99.90;;;;;;5047415;28;20454;-67
2021/07/11 08:06:13;;;;;;;5.22;2.33;;;18.10;99.90;;;;;;5030260;28;20047;-67
2021/07/11 08:08:40;;;;;;;5.88;2.05;;;18.10;99.90;;;;;;5045757;28;20496;-67
2021/07/11 08:11:08;;;;;;;4.05;1.92;;;18.10;99.90;;;;;;5043984;28;20037;-68
2021/07/11 08:13:38;;;;;;;3.30;1.90;;;18.20;99.90;;;;;;5046338;28;20041;-68
2021/07/11 08:16:07;;;;;;;3.20;1.92;;;18.20;99.90;;;;;;5050519;28;20052;-69
2021/07/11 08:18:35;;;;;;;3.80;1.95;;;18.40;99.90;;;;;;5047803;28;20128;-68
2021/07/11 08:21:02;;;;;;;2.60;1.75;;;18.40;99.90;;;;;;5040241;28;20037;-68
2021/07/11 08:23:30;;;;;;;3.25;1.80;;;18.50;99.90;;;;;;5051852;28;20047;-68
2021/07/11 08:25:57;;;;;;;4.20;1.98;;;18.70;99.90;;;;;;5050845;28;20065;-68
2021/07/11 08:28:24;;;;;;;6.03;2.80;;;18.70;99.90;;;;;;5050889;28;20049;-67
2021/07/11 08:30:52;;;;;;;3.35;1.90;;;18.70;99.90;;;;;;5037219;28;20068;-68
2021/07/11 08:33:19;;;;;;;4.05;2.05;;;18.70;99.90;;;;;;5052190;28;20051;-67
2021/07/11 08:35:47;;;;;;;5.13;2.00;;;18.60;99.90;;;;;;5042952;28;20127;-67
2021/07/11 08:38:14;;;;;;;3.10;1.80;;;18.60;99.90;;;;;;5051823;28;20049;-67
2021/07/11 08:40:44;;;;;;;4.03;2.00;;;18.50;99.90;;;;;;5052656;28;20124;-67
2021/07/11 08:43:13;;;;;;;3.67;2.40;;;18.40;99.90;;;;;;5048192;28;20062;-67
2021/07/11 08:45:40;;;;;;;4.28;2.58;;;18.30;99.90;;;;;;5045508;28;20060;-67
2021/07/11 08:48:07;;;;;;;4.93;3.20;;;18.40;99.90;;;;;;5039499;28;20082;-67
2021/07/11 08:50:35;;;;;;;3.53;2.42;;;18.30;99.90;;;;;;5042866;28;20045;-67
2021/07/11 08:53:03;;;;;;;3.55;2.30;;;18.20;99.90;;;;;;5019827;28;20140;-67
2021/07/11 08:55:31;;;;;;;4.20;2.45;;;18.30;99.90;;;;;;5032183;28;20128;-67
2021/07/11 08:58:00;;;;;;;4.40;2.58;;;18.30;99.90;;;;;;5034368;28;20119;-67
2021/07/11 09:00:30;;;;;;;4.05;2.40;;;18.30;99.90;;;;;;5014746;28;20050;-67
2021/07/11 09:02:58;;;;;;;4.28;2.67;;;18.20;99.90;;;;;;5035370;28;20084;-67
2021/07/11 09:05:27;;;;;;;5.50;2.58;;;18.20;99.90;;;;;;5034590;28;20052;-67
2021/07/11 09:08:24;;;;;;;5.70;2.58;;;18.40;99.90;;;;;;5038199;28;20109;-67
2021/07/11 09:10:54;;;;;;;4.05;2.53;;;18.50;99.90;;;;;;5032202;28;20075;-67
2021/07/11 09:13:24;;;;;;;3.70;2.30;;;18.70;99.90;;;;;;5030880;28;20042;-67
2021/07/11 09:15:53;;;;;;;5.13;3.50;;;18.80;99.90;;;;;;5030900;28;20045;-67
2021/07/11 09:18:26;;;;;;;4.00;2.65;;;19.10;99.90;;;;;;5032676;28;20042;-67
2021/07/11 09:21:03;;;;;;;5.28;2.97;;;19.20;99.90;;;;;;5030472;28;20535;-67
2021/07/11 09:23:34;;;;;;;4.57;2.67;;;19.30;99.90;;;;;;5043486;28;20045;-67
2021/07/11 09:26:08;;;;;;;4.05;2.33;;;19.50;99.90;;;;;;5034009;28;20049;-67
2021/07/11 09:28:38;;;;;;;5.20;2.42;;;19.50;99.90;;;;;;5040360;28;20040;-67
2021/07/11 09:31:12;;;;;;;3.88;2.42;;;19.50;99.90;;;;;;5045066;28;20045;-67
2021/07/11 09:33:45;;;;;;;5.00;2.60;;;19.60;99.90;;;;;;5047974;28;20045;-67
2021/07/11 09:36:17;;;;;;;3.85;2.22;;;19.50;99.90;;;;;;5040481;28;20136;-67
2021/07/11 09:38:58;;;;;;;8.15;2.75;;;19.60;99.90;;;;;;5048166;28;20131;-67
2021/07/11 09:41:32;;;;;;;5.13;2.90;;;19.60;99.90;;;;;;5035849;28;20134;-67
2021/07/11 09:44:01;;;;;;;3.65;2.40;;;19.50;99.90;;;;;;5034653;28;20045;-67
2021/07/11 09:46:33;;;;;;;5.18;3.38;;;19.50;99.90;;;;;;5038575;28;20377;-67
2021/07/11 09:49:03;;;;;;;4.45;2.80;;;19.40;99.90;;;;;;5036238;28;20145;-67
2021/07/11 09:51:31;;;;;;;4.68;2.78;;;19.40;99.90;;;;;;5045714;28;20045;-67
2021/07/11 09:54:10;;;;;;;4.90;3.10;;;19.40;99.90;;;;;;5045658;28;20037;-67
2021/07/11 09:56:43;;;;;;;5.47;3.20;;;19.40;99.90;;;;;;5047183;28;20120;-67
2021/07/11 09:59:12;;;;;;;4.13;2.80;;;19.40;99.90;;;;;;5042466;28;20131;-67
2021/07/11 10:01:42;;;;;;;5.43;2.80;;;19.40;99.90;;;;;;5046891;28;20037;-67
2021/07/11 10:04:10;;;;;;;5.30;2.85;;;19.50;99.90;;;;;;5049596;28;20044;-67
2021/07/11 10:06:39;;;;;;;6.63;4.35;;;19.40;99.90;;;;;;5043776;28;20037;-67
2021/07/11 10:09:08;;;;;;;5.20;3.60;;;19.40;99.90;;;;;;5038893;28;20416;-67
2021/07/11 10:11:36;;;;;;;5.65;3.03;;;19.20;99.90;;;;;;5034355;28;20496;-68
2021/07/11 10:14:04;;;;;;;3.88;2.95;;;19.20;99.90;;;;;;5042677;28;20071;-68
2021/07/11 10:16:34;;;;;;;10.50;3.47;;;19.20;99.90;;;;;;5050558;28;20128;-65
2021/07/11 10:19:04;;;;;;;4.80;3.50;;;19.20;99.90;;;;;;5053045;28;20059;-66
2021/07/11 10:21:34;;;;;;;6.80;3.40;;;19.10;99.90;;;;;;5046608;28;20079;-66
2021/07/11 10:24:03;;;;;;;4.70;3.50;;;19.20;99.90;;;;;;5050647;28;20156;-66
2021/07/11 10:26:38;;;;;;;8.60;3.60;;;19.30;99.90;;;;;;5053780;28;20468;-66
2021/07/11 10:29:18;;;;;;;5.00;3.10;;;19.40;99.90;;;;;;5051499;28;20448;-66
2021/07/11 10:31:52;;;;;;;6.32;3.22;;;19.60;99.90;;;;;;5041107;28;20113;-66
2021/07/11 10:34:31;;;;;;;4.30;3.08;;;19.60;99.90;;;;;;5040163;28;20091;-67
2021/07/11 10:37:20;;;;;;;4.50;3.30;;;19.70;99.90;;;;;;5046030;28;20084;-67
2021/07/11 10:40:10;;;;;;;5.80;3.70;;;19.80;99.90;;;;;;5049384;28;20049;-67
2021/07/11 10:42:37;;;;;;;7.57;5.10;;;19.90;99.90;;;;;;5044480;28;20037;-67
2021/07/11 10:45:11;;;;;;;6.00;4.18;;;19.90;99.90;;;;;;5037990;28;20500;-68
2021/07/11 10:47:40;;;;;;;4.68;3.10;;;19.90;99.90;;;;;;5044874;28;20040;-67
2021/07/11 10:50:40;;;;;;;8.52;3.47;;;20.00;99.90;;;;;;5031389;28;20500;-67
2021/07/11 10:53:17;;;;;;;4.95;3.40;;;19.90;99.90;;;;;;5037733;28;20493;-68
2021/07/11 10:55:45;;;;;;;5.45;3.35;;;20.00;99.90;;;;;;5031263;28;20435;-68
2021/07/11 10:58:17;;;;;;;4.15;2.92;;;19.90;99.90;;;;;;5043846;28;20033;-67
2021/07/11 11:00:46;;;;;;;5.30;3.10;;;20.00;99.90;;;;;;5035381;28;20049;-67
2021/07/11 11:03:23;;;;;;;5.95;3.67;;;19.80;99.90;;;;;;5036696;28;20041;-67
2021/07/11 11:05:52;;;;;;;6.40;3.85;;;19.80;99.90;;;;;;5041154;28;20136;-67
2021/07/11 11:08:22;;;;;;;8.02;3.53;;;19.80;99.90;;;;;;5035605;28;20052;-68
2021/07/11 11:10:53;;;;;;;4.40;3.10;;;19.60;99.90;;;;;;5032672;28;20438;-68
2021/07/11 11:13:26;;;;;;;5.80;3.40;;;19.70;99.90;;;;;;5045929;28;20045;-67
2021/07/11 11:15:57;;;;;;;3.95;2.80;;;19.90;99.90;;;;;;5043039;28;20143;-67
2021/07/11 11:18:33;;;;;;;4.90;3.30;;;19.80;99.90;;;;;;5042523;28;20063;-67
2021/07/11 11:21:02;;;;;;;;;;;19.90;99.90;;;;;;5053134;28;20522;-68
2021/07/11 11:23:50;;;;;;;5.63;3.55;;;19.90;99.90;;;;;;5046028;28;19921;-68
2021/07/11 11:26:26;;;;;;;7.82;4.65;;;20.10;99.90;;;;;;5047701;28;20052;-67
2021/07/11 11:28:56;;;;;;;5.65;3.63;;;20.20;99.90;;;;;;5045497;28;20041;-67
2021/07/11 11:31:27;;;;;;;5.20;3.60;;;20.10;99.90;;;;;;5047924;28;20059;-68
2021/07/11 11:34:07;;;;;;;4.95;3.55;;;20.20;99.90;;;;;;5043336;28;20112;-67
2021/07/11 11:36:51;;;;;;;5.95;3.67;;;20.30;99.90;;;;;;5043404;28;20119;-68
2021/07/11 11:39:23;;;;;;;5.05;3.15;;;20.40;99.90;;;;;;5051450;28;20117;-67
2021/07/11 11:41:51;;;;;;;5.00;3.42;;;20.60;99.90;;;;;;5046790;28;20043;-67
2021/07/11 11:44:26;;;;;;;6.50;3.60;;;20.80;99.90;;;;;;5047425;28;20068;-67
2021/07/11 11:46:56;;;;;;;4.28;3.30;;;21.20;99.90;;;;;;5046561;28;20048;-66
2021/07/11 11:49:28;;;;;;;4.63;3.20;;;21.50;99.90;;;;;;5034054;28;20073;-67
2021/07/11 11:51:58;;;;;;;5.45;3.00;;;21.90;99.90;;;;;;5031589;28;20480;-67
2021/07/11 11:54:42;;;;;;;5.82;3.28;;;22.10;99.90;;;;;;5038043;28;20037;-67
2021/07/11 11:57:10;;;;;;;5.68;2.80;;;22.20;99.90;;;;;;5030379;28;20103;-68
2021/07/11 11:59:38;;;;;;;4.10;3.15;;;22.50;99.90;;;;;;5038452;28;20137;-67
2021/07/11 12:02:09;;;;;;;4.95;3.00;;;22.60;99.90;;;;;;5042019;28;20419;-67
2021/07/11 12:04:36;;;;;;;5.53;3.70;;;22.90;99.90;;;;;;5038581;28;20046;-66
2021/07/11 12:07:11;;;;;;;5.03;3.38;;;23.30;99.90;;;;;;5053426;28;20117;-67
2021/07/11 12:09:38;;;;;;;4.25;2.92;;;23.60;99.90;;;;;;5031350;28;20481;-67
2021/07/11 12:12:12;;;;;;;5.93;3.22;;;23.70;99.90;;;;;;5036680;28;20045;-67
2021/07/11 12:14:42;;;;;;;5.90;2.90;;;23.90;99.90;;;;;;5039231;28;20037;-67
2021/07/11 12:17:16;;;;;;;5.18;2.60;;;24.00;99.90;;;;;;5041174;28;20534;-68
2021/07/11 12:19:46;;;;;;;3.92;2.20;;;24.20;99.90;;;;;;5045401;28;20041;-67
2021/07/11 12:22:36;;;;;;;3.53;2.20;;;24.20;99.90;;;;;;5043621;28;20060;-66
2021/07/11 12:28:00;;;;;;;4.70;2.67;;;24.70;99.90;;;;;;5041123;28;20491;-67
2021/07/11 12:30:42;;;;;;;3.53;2.50;;;24.60;99.90;;;;;;5033851;28;20041;-67
2021/07/11 12:33:11;;;;;;;4.43;2.50;;;24.50;99.90;;;;;;5040094;28;20033;-68
2021/07/11 12:35:46;;;;;;;5.97;2.10;;;24.60;99.90;;;;;;5037366;28;20052;-68
2021/07/11 12:38:14;;;;;;;3.63;2.30;;;24.60;99.90;;;;;;5040772;28;20045;-67
2021/07/11 12:40:42;;;;;;;3.75;2.20;;;24.70;99.90;;;;;;5041874;28;20042;-68
2021/07/11 12:43:20;;;;;;;4.90;2.55;;;24.80;99.90;;;;;;5039930;28;20124;-68
2021/07/11 12:46:08;;;;;;;3.72;2.50;;;24.70;99.90;;;;;;5035135;28;20135;-68
2021/07/11 12:48:40;;;;;;;4.10;2.60;;;24.40;99.90;;;;;;5038685;28;20043;-68
2021/07/11 12:51:22;;;;;;;5.82;2.75;;;24.60;99.90;;;;;;5046435;28;20440;-68
2021/07/11 12:53:53;;;;;;;4.03;2.40;;;24.70;99.90;;;;;;5034829;28;20424;-68
2021/07/11 12:56:26;;;;;;;4.43;2.70;;;24.80;99.90;;;;;;5043166;28;20044;-67
2021/07/11 12:59:01;;;;;;;4.20;2.70;;;25.10;99.90;;;;;;5050096;28;20033;-68
2021/07/11 13:01:28;;;;;;;4.80;2.90;;;24.90;99.90;;;;;;5048039;28;20037;-67
2021/07/11 13:04:06;;;;;;;6.00;4.13;;;25.20;99.90;;;;;;5041435;28;20048;-67
2021/07/11 13:06:37;;;;;;;4.43;2.92;;;25.50;99.90;;;;;;5046437;28;20040;-66